createdAt,value
2023-01-04T00:02:21.870Z,59.10
2023-01-04T00:07:26.239Z,59.20
2023-01-04T00:12:29.140Z,59.30
2023-01-04T00:17:33.174Z,59.40
2023-01-04T00:22:37.765Z,59.30
2023-01-04T00:27:40.682Z,59.50
2023-01-04T00:32:43.630Z,59.50
2023-01-04T00:37:51.864Z,59.50
2023-01-04T00:42:55.188Z,59.40
2023-01-04T00:47:58.093Z,59.40
2023-01-04T00:53:02.347Z,59.50
2023-01-04T00:58:05.768Z,59.40
2023-01-04T01:03:09.349Z,59.40
2023-01-04T01:08:30.523Z,59.40
2023-01-04T01:13:34.162Z,59.40
2023-01-04T01:18:38.251Z,59.30
2023-01-04T01:23:43.823Z,59.50
2023-01-04T01:28:47.070Z,59.50
2023-01-04T01:33:51.113Z,59.40
2023-01-04T01:38:56.186Z,59.30
2023-01-04T01:44:01.853Z,59.20
2023-01-04T01:49:10.158Z,59.10
2023-01-04T01:54:20.649Z,59.10
2023-01-04T01:59:24.660Z,59.00
2023-01-04T02:04:27.934Z,58.90
2023-01-04T02:09:33.416Z,59.00
2023-01-04T02:14:36.334Z,59.00
2023-01-04T02:19:57.594Z,59.00
2023-01-04T02:25:57.739Z,59.00
2023-01-04T02:31:16.528Z,59.00
2023-01-04T02:36:27.186Z,59.00
2023-01-04T02:41:34.987Z,59.10
2023-01-04T02:46:45.107Z,59.00
2023-01-04T02:51:48.608Z,59.10
2023-01-04T02:57:06.225Z,59.00
2023-01-04T03:02:43.281Z,59.00
2023-01-04T03:07:54.920Z,58.90
2023-01-04T03:13:04.883Z,59.00
2023-01-04T03:18:17.550Z,59.00
2023-01-04T03:23:41.932Z,59.10
2023-01-04T03:29:03.605Z,59.10
2023-01-04T03:34:25.730Z,59.10
2023-01-04T03:39:55.531Z,59.40
2023-01-04T03:45:25.044Z,59.50
2023-01-04T03:50:32.750Z,59.60
2023-01-04T03:55:37.320Z,59.50
2023-01-04T04:00:40.388Z,59.80
2023-01-04T04:06:03.799Z,59.80
2023-01-04T04:11:20.692Z,60.00
2023-01-04T04:16:23.774Z,60.10
2023-01-04T04:21:28.106Z,60.20
2023-01-04T04:26:31.082Z,60.30
2023-01-04T04:31:34.056Z,60.40
2023-01-04T04:36:38.445Z,60.50
2023-01-04T04:41:42.157Z,60.70
2023-01-04T04:46:46.227Z,60.60
2023-01-04T04:51:50.493Z,60.80
2023-01-04T04:56:53.408Z,60.90
2023-01-04T05:01:56.488Z,60.90
2023-01-04T05:07:00.874Z,61.00
2023-01-04T05:12:21.332Z,61.10
2023-01-04T05:17:24.275Z,61.20
2023-01-04T05:22:28.549Z,61.30
2023-01-04T05:27:31.500Z,61.40
2023-01-04T05:32:34.431Z,61.50
2023-01-04T05:37:38.754Z,61.50
2023-01-04T05:42:41.704Z,61.70
2023-01-04T05:47:44.903Z,61.80
2023-01-04T05:52:49.794Z,61.70
2023-01-04T05:57:52.863Z,61.90
2023-01-04T06:02:57.130Z,61.90
2023-01-04T06:08:01.553Z,62.10
2023-01-04T06:13:05.465Z,62.20
2023-01-04T06:18:13.126Z,62.20
2023-01-04T06:23:17.970Z,62.30
2023-01-04T06:28:20.995Z,62.50
2023-01-04T06:33:23.937Z,62.50
2023-01-04T06:38:28.334Z,62.70
2023-01-04T06:43:31.243Z,62.90
2023-01-04T06:48:34.242Z,63.70
2023-01-04T06:53:38.552Z,63.10
2023-01-04T06:58:41.610Z,63.20
2023-01-04T07:03:44.565Z,63.30
2023-01-04T07:08:48.861Z,63.50
2023-01-04T07:13:52.743Z,63.50
2023-01-04T07:18:55.716Z,63.50
2023-01-04T07:23:59.970Z,63.50
2023-01-04T07:29:17.902Z,63.60
2023-01-04T07:34:22.662Z,63.60
2023-01-04T07:39:26.946Z,64.00
2023-01-04T07:44:29.897Z,63.90
2023-01-04T07:49:32.944Z,64.00
2023-01-04T07:54:37.436Z,64.00
2023-01-04T07:59:40.380Z,63.90
2023-01-04T08:04:43.523Z,64.10
2023-01-04T08:09:47.864Z,64.00
2023-01-04T08:14:50.867Z,64.00
2023-01-04T08:19:53.823Z,64.00
2023-01-04T08:24:58.139Z,64.10
2023-01-04T08:30:01.244Z,64.20
2023-01-04T08:35:04.363Z,64.20
2023-01-04T08:40:10.755Z,64.10
2023-01-04T08:45:13.711Z,64.10
2023-01-04T08:50:20.336Z,64.10
2023-01-04T08:55:24.781Z,64.10
2023-01-04T09:00:28.201Z,64.10
2023-01-04T09:05:33.152Z,64.10
2023-01-04T09:10:39.839Z,64.20
2023-01-04T09:15:42.820Z,64.30
2023-01-04T09:20:45.738Z,64.30
2023-01-04T09:25:50.133Z,64.20
2023-01-04T09:30:53.116Z,64.40
2023-01-04T09:35:56.121Z,64.30
2023-01-04T09:41:11.200Z,64.30
2023-01-04T09:46:23.995Z,64.30
2023-01-04T09:51:33.084Z,64.20
2023-01-04T09:56:38.559Z,64.30
2023-01-04T10:01:45.740Z,64.20
2023-01-04T10:06:48.943Z,64.30
2023-01-04T10:12:07.903Z,64.20
2023-01-04T10:17:44.459Z,64.20
2023-01-04T10:22:51.045Z,64.30
2023-01-04T10:28:11.475Z,64.20
2023-01-04T10:33:16.350Z,64.30
2023-01-04T10:38:23.827Z,64.30
2023-01-04T10:44:11.837Z,64.30
2023-01-04T10:49:08.907Z,64.30
2023-01-04T10:54:26.446Z,64.20
2023-01-04T10:59:37.012Z,64.20
2023-01-04T11:04:45.754Z,64.10
2023-01-04T11:09:52.655Z,64.10
2023-01-04T11:14:57.108Z,64.10
2023-01-04T11:20:00.015Z,64.20
2023-01-04T11:25:36.792Z,64.10
2023-01-04T11:30:41.222Z,64.00
2023-01-04T11:35:45.717Z,63.90
2023-01-04T11:41:00.828Z,63.80
2023-01-04T11:46:07.238Z,63.90
2023-01-04T11:51:33.890Z,63.80
2023-01-04T11:56:37.992Z,63.80
2023-01-04T12:01:44.759Z,63.90
2023-01-04T12:06:52.476Z,63.90
2023-01-04T12:11:57.710Z,64.00
2023-01-04T12:17:07.477Z,64.00
2023-01-04T12:22:22.478Z,64.10
2023-01-04T12:27:25.625Z,64.10
2023-01-04T12:32:47.506Z,64.00
2023-01-04T12:37:50.431Z,63.90
2023-01-04T12:43:18.737Z,64.00
2023-01-04T12:48:53.928Z,64.10
2023-01-04T12:54:01.689Z,64.30
2023-01-04T12:59:26.663Z,64.50
2023-01-04T13:04:41.296Z,64.60
2023-01-04T13:09:51.308Z,64.80
2023-01-04T13:15:02.948Z,64.90
2023-01-04T13:20:17.472Z,64.80
2023-01-04T13:25:21.551Z,65.00
2023-01-04T13:30:33.533Z,65.30
2023-01-04T13:35:37.908Z,65.30
2023-01-04T13:40:48.978Z,65.40
2023-01-04T13:46:14.452Z,65.40
2023-01-04T13:51:25.477Z,65.30
2023-01-04T13:56:33.416Z,65.40
2023-01-04T14:01:42.293Z,65.50
2023-01-04T14:06:49.474Z,65.50
2023-01-04T14:12:07.308Z,65.60
2023-01-04T14:17:31.476Z,65.80
2023-01-04T14:22:50.810Z,65.90
2023-01-04T14:27:53.930Z,66.00
2023-01-04T14:32:59.108Z,65.90
2023-01-04T14:38:07.612Z,65.90
2023-01-04T14:43:35.451Z,65.90
2023-01-04T14:48:38.568Z,65.90
2023-01-04T14:53:43.040Z,65.80
2023-01-04T14:58:46.624Z,65.80
2023-01-04T15:03:49.736Z,65.70
2023-01-04T15:08:54.101Z,65.70
2023-01-04T15:13:57.032Z,65.50
2023-01-04T15:18:59.919Z,65.30
2023-01-04T15:24:04.503Z,65.30
2023-01-04T15:29:08.546Z,65.30
2023-01-04T15:34:11.829Z,65.20
2023-01-04T15:39:17.025Z,65.10
2023-01-04T15:44:19.954Z,65.10
2023-01-04T15:49:22.872Z,65.10
2023-01-04T15:54:27.927Z,65.30
2023-01-04T15:59:30.953Z,65.10
2023-01-04T16:04:36.102Z,65.10
2023-01-04T16:09:40.458Z,65.00
2023-01-04T16:14:43.458Z,64.80
2023-01-04T16:19:46.587Z,64.80
2023-01-04T16:30:15.223Z,64.70
2023-01-04T16:35:18.240Z,64.50
2023-01-04T16:40:22.723Z,64.40
2023-01-04T16:45:25.628Z,64.30
2023-01-04T16:50:28.616Z,64.30
2023-01-04T16:55:32.867Z,64.20
2023-01-04T17:00:35.876Z,64.20
2023-01-04T17:05:40.571Z,64.20
2023-01-04T17:10:44.975Z,64.20
2023-01-04T17:15:47.908Z,64.10
2023-01-04T17:20:55.533Z,64.10
2023-01-04T17:26:05.532Z,64.10
2023-01-04T17:31:10.389Z,64.00
2023-01-04T17:36:15.824Z,64.10
2023-01-04T17:41:22.098Z,64.10
2023-01-04T17:46:27.163Z,64.10
2023-01-04T17:51:30.155Z,64.20
2023-01-04T17:56:36.850Z,64.20
2023-01-04T18:01:40.036Z,64.30
2023-01-04T18:06:43.051Z,64.20
2023-01-04T18:11:48.694Z,64.30
2023-01-04T18:16:58.392Z,64.50
2023-01-04T18:22:02.266Z,64.50
2023-01-04T18:27:24.418Z,64.50
2023-01-04T18:32:28.857Z,64.40
2023-01-04T18:37:32.064Z,64.20
2023-01-04T18:42:37.160Z,64.20
2023-01-04T18:47:40.127Z,64.10
2023-01-04T18:52:43.042Z,64.10
2023-01-04T18:57:47.300Z,64.10
2023-01-04T19:02:50.328Z,64.00
2023-01-04T19:07:53.383Z,64.10
2023-01-04T19:12:57.811Z,64.00
2023-01-04T19:18:00.952Z,64.10
2023-01-04T19:23:04.180Z,64.10
2023-01-04T19:28:09.322Z,64.10
2023-01-04T19:33:12.789Z,64.00
2023-01-04T19:38:16.183Z,64.00
2023-01-04T19:43:20.644Z,64.20
2023-01-04T19:48:24.233Z,64.20
2023-01-04T19:53:27.196Z,64.20
2023-01-04T19:58:31.738Z,64.20
2023-01-04T20:03:34.968Z,64.20
2023-01-04T20:08:38.336Z,64.20
2023-01-04T20:13:42.750Z,64.10
2023-01-04T20:18:45.674Z,64.10
2023-01-04T20:23:48.583Z,64.10
2023-01-04T20:28:53.119Z,64.10
2023-01-04T20:33:57.151Z,64.00
2023-01-04T20:39:02.479Z,64.10
2023-01-04T20:44:07.007Z,64.10
2023-01-04T20:49:10.055Z,64.00
2023-01-04T20:54:13.167Z,64.00
2023-01-04T20:59:17.742Z,64.00
2023-01-04T21:04:20.753Z,64.00
2023-01-04T21:09:23.666Z,64.00
2023-01-04T21:14:31.364Z,64.00
2023-01-04T21:19:34.563Z,63.80
2023-01-04T21:24:37.710Z,63.70
2023-01-04T21:29:42.036Z,63.50
2023-01-04T21:34:45.046Z,63.20
2023-01-04T21:39:48.317Z,63.20
2023-01-04T21:44:52.870Z,63.00
2023-01-04T21:49:55.792Z,62.80
2023-01-04T21:54:58.698Z,62.60
2023-01-04T22:00:04.643Z,62.60
2023-01-04T22:05:08.210Z,62.50
2023-01-04T22:10:11.217Z,62.30
2023-01-04T22:15:15.681Z,62.50
2023-01-04T22:20:18.803Z,62.50
2023-01-04T22:25:22.167Z,62.60
2023-01-04T22:30:26.612Z,62.50
2023-01-04T22:35:29.642Z,62.60
2023-01-04T22:40:32.564Z,62.70
2023-01-04T22:45:36.973Z,62.80
2023-01-04T22:50:40.175Z,62.80
2023-01-04T22:56:17.882Z,62.70
2023-01-04T23:01:09.183Z,62.80
2023-01-04T23:06:14.196Z,62.80
2023-01-04T23:11:18.932Z,62.90
2023-01-04T23:16:29.635Z,62.90
2023-01-04T23:21:35.906Z,62.90
2023-01-04T23:26:38.868Z,63.00
2023-01-04T23:31:43.407Z,63.00
2023-01-04T23:36:46.373Z,63.10
2023-01-04T23:41:49.305Z,63.10
2023-01-04T23:46:55.589Z,63.30
2023-01-04T23:51:59.098Z,63.40
2023-01-04T23:57:02.780Z,63.30
